sensor_id;sensor_type;location;lat;lon;timestamp;temperature;humidity
9193;DHT22;4631;49.296;10.560;2022-12-17T00:01:25;-6.10;99.90
9193;DHT22;4631;49.296;10.560;2022-12-17T00:04:09;-6.10;99.90
9193;DHT22;4631;49.296;10.560;2022-12-17T00:06:54;-6.20;99.90
9193;DHT22;4631;49.296;10.560;2022-12-17T00:09:44;-6.20;99.90
9193;DHT22;4631;49.296;10.560;2022-12-17T00:12:30;-6.30;99.90
9193;DHT22;4631;49.296;10.560;2022-12-17T00:15:14;-6.30;99.90
9193;DHT22;4631;49.296;10.560;2022-12-17T00:18:02;-6.40;99.90
9193;DHT22;4631;49.296;10.560;2022-12-17T00:20:50;-6.50;99.90
9193;DHT22;4631;49.296;10.560;2022-12-17T00:23:34;-6.50;99.90
9193;DHT22;4631;49.296;10.560;2022-12-17T00:26:18;-6.50;99.90
9193;DHT22;4631;49.296;10.560;2022-12-17T00:29:07;-6.60;99.90
9193;DHT22;4631;49.296;10.560;2022-12-17T00:31:51;-6.70;99.90
9193;DHT22;4631;49.296;10.560;2022-12-17T00:34:35;-6.70;99.90
9193;DHT22;4631;49.296;10.560;2022-12-17T00:37:20;-6.70;99.90
9193;DHT22;4631;49.296;10.560;2022-12-17T00:40:04;-6.70;99.90
9193;DHT22;4631;49.296;10.560;2022-12-17T00:42:57;-6.80;99.90
9193;DHT22;4631;49.296;10.560;2022-12-17T00:45:42;-6.80;99.90
9193;DHT22;4631;49.296;10.560;2022-12-17T00:48:26;-6.80;99.90
9193;DHT22;4631;49.296;10.560;2022-12-17T00:51:11;-6.90;99.90
9193;DHT22;4631;49.296;10.560;2022-12-17T00:53:55;-6.90;99.90
9193;DHT22;4631;49.296;10.560;2022-12-17T00:56:39;-7.00;99.90
9193;DHT22;4631;49.296;10.560;2022-12-17T00:59:23;-7.10;99.90
9193;DHT22;4631;49.296;10.560;2022-12-17T01:02:09;-7.10;99.90
9193;DHT22;4631;49.296;10.560;2022-12-17T01:04:53;-7.10;99.90
9193;DHT22;4631;49.296;10.560;2022-12-17T01:07:38;-7.20;99.90
9193;DHT22;4631;49.296;10.560;2022-12-17T01:10:22;-7.20;99.90
9193;DHT22;4631;49.296;10.560;2022-12-17T01:13:07;-7.30;99.90
9193;DHT22;4631;49.296;10.560;2022-12-17T01:15:51;-7.30;99.90
9193;DHT22;4631;49.296;10.560;2022-12-17T01:18:37;-7.30;99.90
9193;DHT22;4631;49.296;10.560;2022-12-17T01:21:21;-7.30;99.90
9193;DHT22;4631;49.296;10.560;2022-12-17T01:24:05;-7.30;99.90
9193;DHT22;4631;49.296;10.560;2022-12-17T01:27:01;-7.40;99.90
9193;DHT22;4631;49.296;10.560;2022-12-17T01:29:45;-7.40;99.90
9193;DHT22;4631;49.296;10.560;2022-12-17T01:32:29;-7.50;99.90
9193;DHT22;4631;49.296;10.560;2022-12-17T01:35:15;-7.50;99.90
9193;DHT22;4631;49.296;10.560;2022-12-17T01:37:58;-7.50;99.90
9193;DHT22;4631;49.296;10.560;2022-12-17T01:40:43;-7.50;99.90
9193;DHT22;4631;49.296;10.560;2022-12-17T01:43:34;-7.50;99.90
9193;DHT22;4631;49.296;10.560;2022-12-17T01:46:19;-7.60;99.90
9193;DHT22;4631;49.296;10.560;2022-12-17T01:49:03;-7.60;99.90
9193;DHT22;4631;49.296;10.560;2022-12-17T01:51:49;-7.60;99.90
9193;DHT22;4631;49.296;10.560;2022-12-17T01:54:34;-7.70;99.90
9193;DHT22;4631;49.296;10.560;2022-12-17T01:57:19;-7.70;99.90
9193;DHT22;4631;49.296;10.560;2022-12-17T02:00:04;-7.70;99.90
9193;DHT22;4631;49.296;10.560;2022-12-17T02:02:49;-7.80;99.90
9193;DHT22;4631;49.296;10.560;2022-12-17T02:05:36;-7.90;99.90
9193;DHT22;4631;49.296;10.560;2022-12-17T02:08:26;-7.90;99.90
9193;DHT22;4631;49.296;10.560;2022-12-17T02:11:14;-8.00;99.90
9193;DHT22;4631;49.296;10.560;2022-12-17T02:14:02;-8.10;99.90
9193;DHT22;4631;49.296;10.560;2022-12-17T02:16:53;-8.10;99.90
9193;DHT22;4631;49.296;10.560;2022-12-17T02:19:40;-8.10;99.90
9193;DHT22;4631;49.296;10.560;2022-12-17T02:22:36;-8.10;99.90
9193;DHT22;4631;49.296;10.560;2022-12-17T02:25:24;-8.20;99.90
9193;DHT22;4631;49.296;10.560;2022-12-17T02:28:14;-8.20;99.90
9193;DHT22;4631;49.296;10.560;2022-12-17T02:30:58;-8.30;99.90
9193;DHT22;4631;49.296;10.560;2022-12-17T02:33:43;-8.30;99.90
9193;DHT22;4631;49.296;10.560;2022-12-17T02:36:28;-8.30;99.90
9193;DHT22;4631;49.296;10.560;2022-12-17T02:39:12;-8.40;99.90
9193;DHT22;4631;49.296;10.560;2022-12-17T02:41:56;-8.40;99.90
9193;DHT22;4631;49.296;10.560;2022-12-17T02:44:42;-8.40;99.90
9193;DHT22;4631;49.296;10.560;2022-12-17T02:47:34;-8.40;99.90
9193;DHT22;4631;49.296;10.560;2022-12-17T02:50:19;-8.40;99.90
9193;DHT22;4631;49.296;10.560;2022-12-17T02:53:03;-8.50;99.90
9193;DHT22;4631;49.296;10.560;2022-12-17T02:55:48;-8.50;99.90
9193;DHT22;4631;49.296;10.560;2022-12-17T02:58:32;-8.50;99.90
9193;DHT22;4631;49.296;10.560;2022-12-17T03:01:17;-8.60;99.90
9193;DHT22;4631;49.296;10.560;2022-12-17T03:04:02;-8.60;99.90
9193;DHT22;4631;49.296;10.560;2022-12-17T03:06:46;-8.70;99.90
9193;DHT22;4631;49.296;10.560;2022-12-17T03:09:41;-8.70;99.90
9193;DHT22;4631;49.296;10.560;2022-12-17T03:12:26;-8.70;99.90
9193;DHT22;4631;49.296;10.560;2022-12-17T03:15:09;-8.80;99.90
9193;DHT22;4631;49.296;10.560;2022-12-17T03:17:55;-8.90;99.90
9193;DHT22;4631;49.296;10.560;2022-12-17T03:20:39;-8.90;99.90
9193;DHT22;4631;49.296;10.560;2022-12-17T03:23:23;-9.00;99.90
9193;DHT22;4631;49.296;10.560;2022-12-17T03:26:07;-9.00;99.90
9193;DHT22;4631;49.296;10.560;2022-12-17T03:28:59;-9.10;99.90
9193;DHT22;4631;49.296;10.560;2022-12-17T03:31:43;-9.10;99.90
9193;DHT22;4631;49.296;10.560;2022-12-17T03:34:29;-9.10;99.90
9193;DHT22;4631;49.296;10.560;2022-12-17T03:37:13;-9.20;99.90
9193;DHT22;4631;49.296;10.560;2022-12-17T03:39:57;-9.20;99.90
9193;DHT22;4631;49.296;10.560;2022-12-17T03:42:42;-9.20;99.90
9193;DHT22;4631;49.296;10.560;2022-12-17T03:45:26;-9.20;99.90
9193;DHT22;4631;49.296;10.560;2022-12-17T03:48:11;-9.20;99.90
9193;DHT22;4631;49.296;10.560;2022-12-17T03:50:57;-9.20;99.90
9193;DHT22;4631;49.296;10.560;2022-12-17T03:53:44;-9.20;99.90
9193;DHT22;4631;49.296;10.560;2022-12-17T03:56:29;-9.20;99.90
9193;DHT22;4631;49.296;10.560;2022-12-17T03:59:13;-9.30;99.90
9193;DHT22;4631;49.296;10.560;2022-12-17T04:01:59;-9.30;99.90
9193;DHT22;4631;49.296;10.560;2022-12-17T04:04:44;-9.30;99.90
9193;DHT22;4631;49.296;10.560;2022-12-17T04:07:29;-9.30;99.90
9193;DHT22;4631;49.296;10.560;2022-12-17T04:10:13;-9.30;99.90
9193;DHT22;4631;49.296;10.560;2022-12-17T04:12:58;-9.30;99.90
9193;DHT22;4631;49.296;10.560;2022-12-17T04:15:42;-9.40;99.90
9193;DHT22;4631;49.296;10.560;2022-12-17T04:18:29;-9.50;99.90
9193;DHT22;4631;49.296;10.560;2022-12-17T04:21:13;-9.50;99.90
9193;DHT22;4631;49.296;10.560;2022-12-17T04:23:59;-9.50;99.90
9193;DHT22;4631;49.296;10.560;2022-12-17T04:26:43;-9.60;99.90
9193;DHT22;4631;49.296;10.560;2022-12-17T04:29:27;-9.60;99.90
9193;DHT22;4631;49.296;10.560;2022-12-17T04:32:16;-9.60;99.90
9193;DHT22;4631;49.296;10.560;2022-12-17T04:35:00;-9.70;99.90
9193;DHT22;4631;49.296;10.560;2022-12-17T04:37:45;-9.60;99.90
9193;DHT22;4631;49.296;10.560;2022-12-17T04:40:30;-9.70;99.90
9193;DHT22;4631;49.296;10.560;2022-12-17T04:43:14;-9.70;99.90
9193;DHT22;4631;49.296;10.560;2022-12-17T04:45:59;-9.70;99.90
9193;DHT22;4631;49.296;10.560;2022-12-17T04:48:43;-9.70;99.90
9193;DHT22;4631;49.296;10.560;2022-12-17T04:51:27;-9.60;99.90
9193;DHT22;4631;49.296;10.560;2022-12-17T04:54:14;-9.60;99.90
9193;DHT22;4631;49.296;10.560;2022-12-17T04:56:59;-9.60;99.90
9193;DHT22;4631;49.296;10.560;2022-12-17T04:59:43;-9.60;99.90
9193;DHT22;4631;49.296;10.560;2022-12-17T05:02:27;-9.60;99.90
9193;DHT22;4631;49.296;10.560;2022-12-17T05:05:11;-9.60;99.90
9193;DHT22;4631;49.296;10.560;2022-12-17T05:07:56;-9.70;99.90
9193;DHT22;4631;49.296;10.560;2022-12-17T05:10:40;-9.70;99.90
9193;DHT22;4631;49.296;10.560;2022-12-17T05:13:26;-9.70;99.90
9193;DHT22;4631;49.296;10.560;2022-12-17T05:16:10;-9.70;99.90
9193;DHT22;4631;49.296;10.560;2022-12-17T05:21:42;-9.80;99.90
9193;DHT22;4631;49.296;10.560;2022-12-17T05:24:26;-9.80;99.90
9193;DHT22;4631;49.296;10.560;2022-12-17T05:27:10;-9.90;99.90
9193;DHT22;4631;49.296;10.560;2022-12-17T05:29:56;-9.90;99.90
9193;DHT22;4631;49.296;10.560;2022-12-17T05:32:40;-10.00;99.90
9193;DHT22;4631;49.296;10.560;2022-12-17T05:35:24;-10.00;99.90
9193;DHT22;4631;49.296;10.560;2022-12-17T05:38:09;-10.10;99.90
9193;DHT22;4631;49.296;10.560;2022-12-17T05:40:54;-10.10;99.90
9193;DHT22;4631;49.296;10.560;2022-12-17T05:43:39;-10.20;99.90
9193;DHT22;4631;49.296;10.560;2022-12-17T05:46:24;-10.30;99.90
9193;DHT22;4631;49.296;10.560;2022-12-17T05:49:08;-10.30;99.90
9193;DHT22;4631;49.296;10.560;2022-12-17T05:51:53;-10.30;99.90
9193;DHT22;4631;49.296;10.560;2022-12-17T05:54:37;-10.30;99.90
9193;DHT22;4631;49.296;10.560;2022-12-17T05:57:21;-10.30;99.90
9193;DHT22;4631;49.296;10.560;2022-12-17T06:00:06;-10.30;99.90
9193;DHT22;4631;49.296;10.560;2022-12-17T06:02:58;-10.30;99.90
9193;DHT22;4631;49.296;10.560;2022-12-17T06:05:42;-10.30;99.90
9193;DHT22;4631;49.296;10.560;2022-12-17T06:08:26;-10.30;99.90
9193;DHT22;4631;49.296;10.560;2022-12-17T06:11:10;-10.40;99.90
9193;DHT22;4631;49.296;10.560;2022-12-17T06:13:55;-10.40;99.90
9193;DHT22;4631;49.296;10.560;2022-12-17T06:16:41;-10.40;99.90
9193;DHT22;4631;49.296;10.560;2022-12-17T06:19:27;-10.40;99.90
9193;DHT22;4631;49.296;10.560;2022-12-17T06:22:11;-10.40;99.90
9193;DHT22;4631;49.296;10.560;2022-12-17T06:24:55;-10.40;99.90
9193;DHT22;4631;49.296;10.560;2022-12-17T06:27:39;-10.40;99.90
9193;DHT22;4631;49.296;10.560;2022-12-17T06:30:23;-10.50;99.90
9193;DHT22;4631;49.296;10.560;2022-12-17T06:33:08;-10.50;99.90
9193;DHT22;4631;49.296;10.560;2022-12-17T06:35:54;-10.60;99.90
9193;DHT22;4631;49.296;10.560;2022-12-17T06:38:40;-10.60;99.90
9193;DHT22;4631;49.296;10.560;2022-12-17T06:41:24;-10.70;99.90
9193;DHT22;4631;49.296;10.560;2022-12-17T06:44:08;-10.70;99.90
9193;DHT22;4631;49.296;10.560;2022-12-17T06:46:56;-10.70;99.90
9193;DHT22;4631;49.296;10.560;2022-12-17T06:49:40;-10.70;99.90
9193;DHT22;4631;49.296;10.560;2022-12-17T06:52:25;-10.70;99.90
9193;DHT22;4631;49.296;10.560;2022-12-17T06:55:09;-10.80;99.90
9193;DHT22;4631;49.296;10.560;2022-12-17T06:57:54;-10.80;99.90
9193;DHT22;4631;49.296;10.560;2022-12-17T07:00:38;-10.80;99.90
9193;DHT22;4631;49.296;10.560;2022-12-17T07:03:23;-10.70;99.90
9193;DHT22;4631;49.296;10.560;2022-12-17T07:06:07;-10.70;99.90
9193;DHT22;4631;49.296;10.560;2022-12-17T07:08:51;-10.70;99.90
9193;DHT22;4631;49.296;10.560;2022-12-17T07:11:35;-10.70;99.90
9193;DHT22;4631;49.296;10.560;2022-12-17T07:14:22;-10.70;99.90
9193;DHT22;4631;49.296;10.560;2022-12-17T07:17:06;-10.70;99.90
9193;DHT22;4631;49.296;10.560;2022-12-17T07:19:50;-10.70;99.90
9193;DHT22;4631;49.296;10.560;2022-12-17T07:22:34;-10.70;99.90
9193;DHT22;4631;49.296;10.560;2022-12-17T07:25:23;-10.70;99.90
9193;DHT22;4631;49.296;10.560;2022-12-17T07:28:16;-10.80;99.90
9193;DHT22;4631;49.296;10.560;2022-12-17T07:31:00;-10.90;99.90
9193;DHT22;4631;49.296;10.560;2022-12-17T07:33:44;-11.00;99.90
9193;DHT22;4631;49.296;10.560;2022-12-17T07:36:28;-11.00;99.90
9193;DHT22;4631;49.296;10.560;2022-12-17T07:39:27;-11.10;99.90
9193;DHT22;4631;49.296;10.560;2022-12-17T07:42:12;-11.10;99.90
9193;DHT22;4631;49.296;10.560;2022-12-17T07:44:56;-11.10;99.90
9193;DHT22;4631;49.296;10.560;2022-12-17T07:47:49;-11.00;99.90
9193;DHT22;4631;49.296;10.560;2022-12-17T07:50:34;-11.10;99.90
9193;DHT22;4631;49.296;10.560;2022-12-17T07:53:18;-11.10;99.90
9193;DHT22;4631;49.296;10.560;2022-12-17T07:56:03;-11.00;99.90
9193;DHT22;4631;49.296;10.560;2022-12-17T08:01:35;-10.90;99.90
9193;DHT22;4631;49.296;10.560;2022-12-17T08:04:20;-10.90;99.90
9193;DHT22;4631;49.296;10.560;2022-12-17T08:07:04;-10.90;99.90
9193;DHT22;4631;49.296;10.560;2022-12-17T08:09:48;-10.80;99.90
9193;DHT22;4631;49.296;10.560;2022-12-17T08:12:32;-10.70;99.90
9193;DHT22;4631;49.296;10.560;2022-12-17T08:15:17;-10.70;99.90
9193;DHT22;4631;49.296;10.560;2022-12-17T08:18:02;-10.60;99.90
9193;DHT22;4631;49.296;10.560;2022-12-17T08:20:46;-10.60;99.90
9193;DHT22;4631;49.296;10.560;2022-12-17T08:23:30;-10.50;99.90
9193;DHT22;4631;49.296;10.560;2022-12-17T08:26:15;-10.50;99.90
9193;DHT22;4631;49.296;10.560;2022-12-17T08:28:59;-10.50;99.90
9193;DHT22;4631;49.296;10.560;2022-12-17T08:31:43;-10.40;99.90
9193;DHT22;4631;49.296;10.560;2022-12-17T08:37:16;-10.30;99.90
9193;DHT22;4631;49.296;10.560;2022-12-17T08:40:00;-10.30;99.90
9193;DHT22;4631;49.296;10.560;2022-12-17T08:42:44;-10.20;99.90
9193;DHT22;4631;49.296;10.560;2022-12-17T08:45:28;-10.20;99.90
9193;DHT22;4631;49.296;10.560;2022-12-17T08:48:12;-10.10;99.90
9193;DHT22;4631;49.296;10.560;2022-12-17T08:50:57;-10.10;99.90
9193;DHT22;4631;49.296;10.560;2022-12-17T08:53:42;-10.00;99.90
9193;DHT22;4631;49.296;10.560;2022-12-17T08:56:30;-10.10;99.90
9193;DHT22;4631;49.296;10.560;2022-12-17T08:59:14;-10.00;99.90
9193;DHT22;4631;49.296;10.560;2022-12-17T09:01:58;-9.90;99.90
9193;DHT22;4631;49.296;10.560;2022-12-17T09:04:42;-9.90;99.90
9193;DHT22;4631;49.296;10.560;2022-12-17T09:07:27;-9.90;99.90
9193;DHT22;4631;49.296;10.560;2022-12-17T09:10:12;-9.90;99.90
9193;DHT22;4631;49.296;10.560;2022-12-17T09:12:59;-9.80;99.90
9193;DHT22;4631;49.296;10.560;2022-12-17T09:15:49;-9.80;99.90
9193;DHT22;4631;49.296;10.560;2022-12-17T09:18:33;-9.70;99.90
9193;DHT22;4631;49.296;10.560;2022-12-17T09:21:18;-9.60;99.90
9193;DHT22;4631;49.296;10.560;2022-12-17T09:24:02;-9.50;99.90
9193;DHT22;4631;49.296;10.560;2022-12-17T09:26:48;-9.40;99.90
9193;DHT22;4631;49.296;10.560;2022-12-17T09:29:32;-9.40;99.90
9193;DHT22;4631;49.296;10.560;2022-12-17T09:32:17;-9.30;99.90
9193;DHT22;4631;49.296;10.560;2022-12-17T09:35:01;-9.20;99.90
9193;DHT22;4631;49.296;10.560;2022-12-17T09:37:50;-9.10;99.90
9193;DHT22;4631;49.296;10.560;2022-12-17T09:40:34;-9.00;99.90
9193;DHT22;4631;49.296;10.560;2022-12-17T09:43:22;-8.90;99.90
9193;DHT22;4631;49.296;10.560;2022-12-17T09:46:12;-8.80;99.90
9193;DHT22;4631;49.296;10.560;2022-12-17T09:48:59;-8.70;99.90
9193;DHT22;4631;49.296;10.560;2022-12-17T09:51:44;-8.60;99.90
9193;DHT22;4631;49.296;10.560;2022-12-17T09:54:30;-8.50;99.90
9193;DHT22;4631;49.296;10.560;2022-12-17T09:57:17;-8.40;99.90
9193;DHT22;4631;49.296;10.560;2022-12-17T10:00:08;-8.30;99.90
9193;DHT22;4631;49.296;10.560;2022-12-17T10:02:53;-8.20;99.90
9193;DHT22;4631;49.296;10.560;2022-12-17T10:05:37;-8.10;99.90
9193;DHT22;4631;49.296;10.560;2022-12-17T10:08:24;-8.00;99.90
9193;DHT22;4631;49.296;10.560;2022-12-17T10:11:10;-7.90;99.90
9193;DHT22;4631;49.296;10.560;2022-12-17T10:13:55;-7.80;99.90
9193;DHT22;4631;49.296;10.560;2022-12-17T10:16:42;-7.60;99.90
9193;DHT22;4631;49.296;10.560;2022-12-17T10:19:28;-7.50;99.90
9193;DHT22;4631;49.296;10.560;2022-12-17T10:22:27;-7.20;99.90
9193;DHT22;4631;49.296;10.560;2022-12-17T10:25:13;-7.10;99.90
9193;DHT22;4631;49.296;10.560;2022-12-17T10:28:04;-6.80;99.90
9193;DHT22;4631;49.296;10.560;2022-12-17T10:30:48;-6.60;99.90
9193;DHT22;4631;49.296;10.560;2022-12-17T10:33:37;-6.40;99.90
9193;DHT22;4631;49.296;10.560;2022-12-17T10:36:22;-6.20;99.90
9193;DHT22;4631;49.296;10.560;2022-12-17T10:39:10;-5.90;99.90
9193;DHT22;4631;49.296;10.560;2022-12-17T10:41:55;-5.60;99.90
9193;DHT22;4631;49.296;10.560;2022-12-17T10:44:40;-5.40;99.90
9193;DHT22;4631;49.296;10.560;2022-12-17T10:47:24;-5.10;99.90
9193;DHT22;4631;49.296;10.560;2022-12-17T10:50:12;-4.90;99.90
9193;DHT22;4631;49.296;10.560;2022-12-17T10:52:56;-4.70;99.90
9193;DHT22;4631;49.296;10.560;2022-12-17T10:55:46;-4.50;99.90
9193;DHT22;4631;49.296;10.560;2022-12-17T10:58:30;-4.30;99.90
9193;DHT22;4631;49.296;10.560;2022-12-17T11:01:17;-4.00;99.90
9193;DHT22;4631;49.296;10.560;2022-12-17T11:04:02;-3.80;99.90
9193;DHT22;4631;49.296;10.560;2022-12-17T11:06:47;-3.60;99.90
9193;DHT22;4631;49.296;10.560;2022-12-17T11:09:38;-3.40;99.90
9193;DHT22;4631;49.296;10.560;2022-12-17T11:12:25;-3.40;99.90
9193;DHT22;4631;49.296;10.560;2022-12-17T11:21:18;-3.00;99.90
9193;DHT22;4631;49.296;10.560;2022-12-17T11:24:06;-2.80;99.90
9193;DHT22;4631;49.296;10.560;2022-12-17T11:26:53;-2.70;99.90
9193;DHT22;4631;49.296;10.560;2022-12-17T11:29:39;-2.60;99.90
9193;DHT22;4631;49.296;10.560;2022-12-17T11:32:28;-2.60;99.90
9193;DHT22;4631;49.296;10.560;2022-12-17T11:35:15;-2.60;99.90
9193;DHT22;4631;49.296;10.560;2022-12-17T11:38:03;-2.50;99.90
9193;DHT22;4631;49.296;10.560;2022-12-17T11:40:56;-2.30;99.90
9193;DHT22;4631;49.296;10.560;2022-12-17T11:43:45;-2.10;99.90
9193;DHT22;4631;49.296;10.560;2022-12-17T11:46:34;-1.90;99.90
9193;DHT22;4631;49.296;10.560;2022-12-17T11:49:23;-1.60;99.90
9193;DHT22;4631;49.296;10.560;2022-12-17T11:52:12;-1.40;99.90
9193;DHT22;4631;49.296;10.560;2022-12-17T11:55:00;-1.10;99.90
9193;DHT22;4631;49.296;10.560;2022-12-17T11:57:49;-0.80;99.90
9193;DHT22;4631;49.296;10.560;2022-12-17T12:00:35;-0.60;99.90
9193;DHT22;4631;49.296;10.560;2022-12-17T12:03:23;-0.40;99.90
9193;DHT22;4631;49.296;10.560;2022-12-17T12:06:11;-0.30;99.90
9193;DHT22;4631;49.296;10.560;2022-12-17T12:08:58;-0.10;99.90
9193;DHT22;4631;49.296;10.560;2022-12-17T12:11:47;0.10;99.90
9193;DHT22;4631;49.296;10.560;2022-12-17T12:14:38;0.20;99.90
9193;DHT22;4631;49.296;10.560;2022-12-17T12:17:31;0.40;99.90
9193;DHT22;4631;49.296;10.560;2022-12-17T12:20:23;0.50;99.90
9193;DHT22;4631;49.296;10.560;2022-12-17T12:23:15;0.60;99.90
9193;DHT22;4631;49.296;10.560;2022-12-17T12:26:03;0.80;99.90
9193;DHT22;4631;49.296;10.560;2022-12-17T12:28:51;0.80;99.90
9193;DHT22;4631;49.296;10.560;2022-12-17T12:31:38;0.90;99.90
9193;DHT22;4631;49.296;10.560;2022-12-17T12:34:30;1.00;99.90
9193;DHT22;4631;49.296;10.560;2022-12-17T12:37:16;1.20;99.90
9193;DHT22;4631;49.296;10.560;2022-12-17T12:40:03;1.30;99.90
9193;DHT22;4631;49.296;10.560;2022-12-17T12:42:50;1.30;99.90
9193;DHT22;4631;49.296;10.560;2022-12-17T12:45:39;1.40;99.90
9193;DHT22;4631;49.296;10.560;2022-12-17T12:48:29;1.40;99.90
9193;DHT22;4631;49.296;10.560;2022-12-17T12:51:18;1.40;99.90
9193;DHT22;4631;49.296;10.560;2022-12-17T12:54:00;1.40;99.90
9193;DHT22;4631;49.296;10.560;2022-12-17T12:56:45;1.40;99.90
9193;DHT22;4631;49.296;10.560;2022-12-17T12:59:32;1.40;99.90
9193;DHT22;4631;49.296;10.560;2022-12-17T13:02:23;1.40;99.90
9193;DHT22;4631;49.296;10.560;2022-12-17T13:05:27;1.50;99.90
9193;DHT22;4631;49.296;10.560;2022-12-17T13:08:20;1.50;99.90
9193;DHT22;4631;49.296;10.560;2022-12-17T13:10:48;1.40;99.90
9193;DHT22;4631;49.296;10.560;2022-12-17T13:13:18;1.30;99.90
9193;DHT22;4631;49.296;10.560;2022-12-17T13:15:47;1.10;99.90
9193;DHT22;4631;49.296;10.560;2022-12-17T13:18:18;1.00;99.90
9193;DHT22;4631;49.296;10.560;2022-12-17T13:20:56;0.70;99.90
9193;DHT22;4631;49.296;10.560;2022-12-17T13:23:25;0.50;99.90
9193;DHT22;4631;49.296;10.560;2022-12-17T13:26:09;0.20;99.90
9193;DHT22;4631;49.296;10.560;2022-12-17T13:28:38;0.00;99.90
9193;DHT22;4631;49.296;10.560;2022-12-17T13:31:12;-0.30;99.90
9193;DHT22;4631;49.296;10.560;2022-12-17T13:33:42;-0.50;99.90
9193;DHT22;4631;49.296;10.560;2022-12-17T13:36:14;-0.70;99.90
9193;DHT22;4631;49.296;10.560;2022-12-17T13:38:44;-0.90;99.90
9193;DHT22;4631;49.296;10.560;2022-12-17T13:41:14;-1.00;99.90
9193;DHT22;4631;49.296;10.560;2022-12-17T13:43:43;-1.10;99.90
9193;DHT22;4631;49.296;10.560;2022-12-17T13:46:17;-1.20;99.90
9193;DHT22;4631;49.296;10.560;2022-12-17T13:48:50;-1.30;99.90
9193;DHT22;4631;49.296;10.560;2022-12-17T13:51:18;-1.50;99.90
9193;DHT22;4631;49.296;10.560;2022-12-17T13:53:49;-1.60;99.90
9193;DHT22;4631;49.296;10.560;2022-12-17T13:56:20;-1.70;99.90
9193;DHT22;4631;49.296;10.560;2022-12-17T13:58:49;-1.70;99.90
9193;DHT22;4631;49.296;10.560;2022-12-17T14:01:16;-1.80;99.90
9193;DHT22;4631;49.296;10.560;2022-12-17T14:03:47;-1.80;99.90
9193;DHT22;4631;49.296;10.560;2022-12-17T14:06:14;-1.80;99.90
9193;DHT22;4631;49.296;10.560;2022-12-17T14:08:42;-1.80;99.90
9193;DHT22;4631;49.296;10.560;2022-12-17T14:11:10;-1.80;99.90
9193;DHT22;4631;49.296;10.560;2022-12-17T14:13:54;-1.80;99.90
9193;DHT22;4631;49.296;10.560;2022-12-17T14:16:21;-1.80;99.90
9193;DHT22;4631;49.296;10.560;2022-12-17T14:18:50;-1.90;99.90
9193;DHT22;4631;49.296;10.560;2022-12-17T14:21:17;-1.90;99.90
9193;DHT22;4631;49.296;10.560;2022-12-17T14:23:46;-1.90;99.90
9193;DHT22;4631;49.296;10.560;2022-12-17T14:26:13;-2.00;99.90
9193;DHT22;4631;49.296;10.560;2022-12-17T14:28:43;-2.00;99.90
9193;DHT22;4631;49.296;10.560;2022-12-17T14:31:15;-2.10;99.90
9193;DHT22;4631;49.296;10.560;2022-12-17T14:33:43;-2.00;99.90
9193;DHT22;4631;49.296;10.560;2022-12-17T14:36:16;-2.10;99.90
9193;DHT22;4631;49.296;10.560;2022-12-17T14:38:50;-2.20;99.90
9193;DHT22;4631;49.296;10.560;2022-12-17T14:41:17;-2.20;99.90
9193;DHT22;4631;49.296;10.560;2022-12-17T14:44:01;-2.30;99.90
9193;DHT22;4631;49.296;10.560;2022-12-17T14:46:28;-2.30;99.90
9193;DHT22;4631;49.296;10.560;2022-12-17T14:48:56;-2.30;99.90
9193;DHT22;4631;49.296;10.560;2022-12-17T14:51:27;-2.40;99.90
9193;DHT22;4631;49.296;10.560;2022-12-17T14:54:04;-2.40;99.90
9193;DHT22;4631;49.296;10.560;2022-12-17T14:56:31;-2.40;99.90
9193;DHT22;4631;49.296;10.560;2022-12-17T14:58:58;-2.50;99.90
9193;DHT22;4631;49.296;10.560;2022-12-17T15:01:24;-2.50;99.90
9193;DHT22;4631;49.296;10.560;2022-12-17T15:03:51;-2.60;99.90
9193;DHT22;4631;49.296;10.560;2022-12-17T15:06:18;-2.60;99.90
9193;DHT22;4631;49.296;10.560;2022-12-17T15:08:52;-2.70;99.90
9193;DHT22;4631;49.296;10.560;2022-12-17T15:11:21;-2.80;99.90
9193;DHT22;4631;49.296;10.560;2022-12-17T15:16:37;-2.80;99.90
9193;DHT22;4631;49.296;10.560;2022-12-17T15:19:04;-2.80;99.90
9193;DHT22;4631;49.296;10.560;2022-12-17T15:21:30;-2.80;99.90
9193;DHT22;4631;49.296;10.560;2022-12-17T15:23:57;-2.90;99.90
9193;DHT22;4631;49.296;10.560;2022-12-17T15:26:25;-3.00;99.90
9193;DHT22;4631;49.296;10.560;2022-12-17T15:28:52;-3.00;99.90
9193;DHT22;4631;49.296;10.560;2022-12-17T15:31:18;-3.10;99.90
9193;DHT22;4631;49.296;10.560;2022-12-17T15:33:45;-3.10;99.90
9193;DHT22;4631;49.296;10.560;2022-12-17T15:36:12;-3.20;99.90
9193;DHT22;4631;49.296;10.560;2022-12-17T15:38:39;-3.30;99.90
9193;DHT22;4631;49.296;10.560;2022-12-17T15:41:05;-3.40;99.90
9193;DHT22;4631;49.296;10.560;2022-12-17T15:43:47;-3.50;99.90
9193;DHT22;4631;49.296;10.560;2022-12-17T15:46:14;-3.60;99.90
9193;DHT22;4631;49.296;10.560;2022-12-17T15:48:41;-3.60;99.90
9193;DHT22;4631;49.296;10.560;2022-12-17T15:51:08;-3.60;99.90
9193;DHT22;4631;49.296;10.560;2022-12-17T15:53:35;-3.70;99.90
9193;DHT22;4631;49.296;10.560;2022-12-17T15:56:02;-3.80;99.90
9193;DHT22;4631;49.296;10.560;2022-12-17T15:58:29;-3.80;99.90
9193;DHT22;4631;49.296;10.560;2022-12-17T16:00:57;-3.90;99.90
9193;DHT22;4631;49.296;10.560;2022-12-17T16:03:23;-4.00;99.90
9193;DHT22;4631;49.296;10.560;2022-12-17T16:05:50;-4.00;99.90
9193;DHT22;4631;49.296;10.560;2022-12-17T16:08:17;-4.10;99.90
9193;DHT22;4631;49.296;10.560;2022-12-17T16:10:44;-4.20;99.90
9193;DHT22;4631;49.296;10.560;2022-12-17T16:16:15;-4.30;99.90
9193;DHT22;4631;49.296;10.560;2022-12-17T16:18:42;-4.40;99.90
9193;DHT22;4631;49.296;10.560;2022-12-17T16:21:09;-4.50;99.90
9193;DHT22;4631;49.296;10.560;2022-12-17T16:23:35;-4.50;99.90
9193;DHT22;4631;49.296;10.560;2022-12-17T16:26:03;-4.50;99.90
9193;DHT22;4631;49.296;10.560;2022-12-17T16:28:30;-4.60;99.90
9193;DHT22;4631;49.296;10.560;2022-12-17T16:31:05;-4.60;99.90
9193;DHT22;4631;49.296;10.560;2022-12-17T16:33:34;-4.70;99.90
9193;DHT22;4631;49.296;10.560;2022-12-17T16:36:13;-4.70;99.90
9193;DHT22;4631;49.296;10.560;2022-12-17T16:38:41;-4.80;99.90
9193;DHT22;4631;49.296;10.560;2022-12-17T16:41:08;-4.80;99.90
9193;DHT22;4631;49.296;10.560;2022-12-17T16:43:35;-4.90;99.90
9193;DHT22;4631;49.296;10.560;2022-12-17T16:46:02;-4.90;99.90
9193;DHT22;4631;49.296;10.560;2022-12-17T16:48:29;-5.00;99.90
9193;DHT22;4631;49.296;10.560;2022-12-17T16:51:02;-5.00;99.90
9193;DHT22;4631;49.296;10.560;2022-12-17T16:53:40;-5.10;99.90
9193;DHT22;4631;49.296;10.560;2022-12-17T16:56:07;-5.20;99.90
9193;DHT22;4631;49.296;10.560;2022-12-17T16:58:33;-5.20;99.90
9193;DHT22;4631;49.296;10.560;2022-12-17T17:01:00;-5.30;99.90
9193;DHT22;4631;49.296;10.560;2022-12-17T17:03:27;-5.40;99.90
9193;DHT22;4631;49.296;10.560;2022-12-17T17:05:54;-5.40;99.90
9193;DHT22;4631;49.296;10.560;2022-12-17T17:08:26;-5.50;99.90
9193;DHT22;4631;49.296;10.560;2022-12-17T17:10:53;-5.50;99.90
9193;DHT22;4631;49.296;10.560;2022-12-17T17:13:19;-5.60;99.90
9193;DHT22;4631;49.296;10.560;2022-12-17T17:15:46;-5.70;99.90
9193;DHT22;4631;49.296;10.560;2022-12-17T17:18:13;-5.70;99.90
9193;DHT22;4631;49.296;10.560;2022-12-17T17:20:39;-5.80;99.90
9193;DHT22;4631;49.296;10.560;2022-12-17T17:23:06;-5.80;99.90
9193;DHT22;4631;49.296;10.560;2022-12-17T17:25:35;-5.80;99.90
9193;DHT22;4631;49.296;10.560;2022-12-17T17:28:02;-5.90;99.90
9193;DHT22;4631;49.296;10.560;2022-12-17T17:30:29;-6.00;99.90
9193;DHT22;4631;49.296;10.560;2022-12-17T17:32:55;-6.10;99.90
9193;DHT22;4631;49.296;10.560;2022-12-17T17:35:22;-6.20;99.90